createdAt,value
2019-04-22T00:02:22.576Z,12.10
2019-04-22T00:05:01.206Z,12.00
2019-04-22T00:07:42.055Z,11.90
2019-04-22T00:10:15.320Z,11.80
2019-04-22T00:12:43.927Z,11.70
2019-04-22T00:15:03.789Z,11.70
2019-04-22T00:22:32.634Z,11.50
2019-04-22T00:25:10.394Z,11.40
2019-04-22T00:27:35.743Z,11.30
2019-04-22T00:30:09.139Z,11.30
2019-04-22T00:32:24.096Z,11.20
2019-04-22T00:34:53.748Z,11.20
2019-04-22T00:37:24.319Z,11.20
2019-04-22T00:39:51.774Z,11.10
2019-04-22T00:42:20.855Z,11.10
2019-04-22T00:44:55.889Z,11.10
2019-04-22T00:47:26.405Z,11.00
2019-04-22T00:52:28.500Z,10.80
2019-04-22T00:54:48.881Z,10.80
2019-04-22T00:57:09.148Z,10.80
2019-04-22T00:59:40.307Z,10.70
2019-04-22T01:02:10.219Z,10.70
2019-04-22T01:07:00.728Z,10.50
2019-04-22T01:09:40.144Z,10.40
2019-04-22T01:12:00.162Z,10.40
2019-04-22T01:14:28.069Z,10.40
2019-04-22T01:17:02.412Z,10.40
2019-04-22T01:19:29.647Z,10.30
2019-04-22T01:21:58.405Z,10.30
2019-04-22T01:24:31.145Z,10.30
2019-04-22T01:26:50.754Z,10.20
2019-04-22T01:29:14.946Z,10.20
2019-04-22T01:31:36.509Z,10.10
2019-04-22T01:34:18.486Z,10.10
2019-04-22T01:36:47.415Z,10.10
2019-04-22T01:39:21.295Z,10.10
2019-04-22T01:41:55.211Z,10.00
2019-04-22T01:44:21.600Z,10.00
2019-04-22T01:47:03.415Z,10.00
2019-04-22T01:49:19.149Z,9.90
2019-04-22T01:51:51.787Z,9.90
2019-04-22T01:54:12.899Z,9.80
2019-04-22T01:56:41.144Z,9.80
2019-04-22T01:58:59.230Z,9.80
2019-04-22T02:01:37.630Z,9.80
2019-04-22T02:04:08.884Z,9.70
2019-04-22T02:06:35.211Z,9.80
2019-04-22T02:09:17.455Z,9.80
2019-04-22T02:11:32.310Z,9.70
2019-04-22T02:13:56.797Z,9.70
2019-04-22T02:16:29.009Z,9.70
2019-04-22T02:18:52.803Z,9.60
2019-04-22T02:21:13.818Z,9.60
2019-04-22T02:26:15.782Z,9.60
2019-04-22T02:28:56.467Z,9.60
2019-04-22T02:36:23.059Z,9.50
2019-04-22T02:41:22.142Z,9.40
2019-04-22T02:46:22.662Z,9.20
2019-04-22T02:51:10.398Z,9.10
2019-04-22T02:54:02.065Z,9.00
2019-04-22T02:56:25.557Z,9.00
2019-04-22T02:58:41.819Z,9.00
2019-04-22T03:01:06.011Z,8.90
2019-04-22T03:03:36.600Z,8.80
2019-04-22T03:06:16.480Z,8.80
2019-04-22T03:08:23.937Z,8.70
2019-04-22T03:10:56.895Z,8.70
2019-04-22T03:15:55.475Z,8.50
2019-04-22T03:18:21.783Z,8.50
2019-04-22T03:20:41.956Z,8.40
2019-04-22T03:23:31.802Z,8.30
2019-04-22T03:27:58.363Z,8.20
2019-04-22T03:35:50.043Z,8.00
2019-04-22T03:37:55.967Z,8.00
2019-04-22T03:43:09.204Z,7.90
2019-04-22T03:50:25.628Z,7.70
2019-04-22T03:53:00.736Z,7.70
2019-04-22T03:55:23.133Z,7.60
2019-04-22T03:57:49.663Z,7.60
2019-04-22T04:00:26.499Z,7.50
2019-04-22T04:02:46.026Z,7.50
2019-04-22T04:05:26.348Z,7.40
2019-04-22T04:10:25.288Z,7.30
2019-04-22T04:12:38.641Z,7.30
2019-04-22T04:15:16.054Z,7.30
2019-04-22T04:17:36.943Z,7.20
2019-04-22T04:20:24.328Z,7.10
2019-04-22T04:22:46.042Z,7.10
2019-04-22T04:25:24.197Z,7.10
2019-04-22T04:30:59.968Z,7.10
2019-04-22T04:39:59.852Z,7.10
2019-04-22T04:42:23.091Z,7.10
2019-04-22T04:47:11.489Z,7.00
2019-04-22T04:49:43.569Z,7.10
2019-04-22T04:52:06.407Z,7.20
2019-04-22T04:56:56.064Z,7.10
2019-04-22T05:07:00.024Z,7.40
2019-04-22T05:09:19.629Z,7.40
2019-04-22T05:21:33.994Z,7.70
2019-04-22T05:24:09.535Z,7.70
2019-04-22T05:26:35.524Z,7.80
2019-04-22T05:28:58.951Z,7.90
2019-04-22T05:31:32.217Z,7.90
2019-04-22T05:33:56.333Z,8.00
2019-04-22T05:38:53.477Z,8.10
2019-04-22T05:41:17.888Z,8.20
2019-04-22T05:43:50.064Z,8.30
2019-04-22T05:46:18.438Z,8.40
2019-04-22T05:48:51.072Z,8.50
2019-04-22T05:51:10.003Z,8.60
2019-04-22T05:53:40.311Z,8.70
2019-04-22T05:56:13.979Z,8.90
2019-04-22T05:58:39.484Z,9.00
2019-04-22T06:03:42.569Z,9.20
2019-04-22T06:06:06.410Z,9.50
2019-04-22T06:08:29.531Z,9.50
2019-04-22T06:11:04.128Z,9.60
2019-04-22T06:13:26.758Z,9.70
2019-04-22T06:15:53.100Z,9.80
2019-04-22T06:18:27.225Z,9.90
2019-04-22T06:21:06.889Z,10.00
2019-04-22T06:26:07.902Z,10.40
2019-04-22T06:28:29.025Z,10.50
2019-04-22T06:33:20.743Z,10.60
2019-04-22T06:38:33.054Z,11.00
2019-04-22T06:40:46.569Z,11.00
2019-04-22T06:43:20.008Z,11.00
2019-04-22T06:45:41.391Z,11.20
2019-04-22T06:48:12.803Z,11.40
2019-04-22T06:50:41.782Z,11.60
2019-04-22T06:53:02.977Z,11.80
2019-04-22T06:55:40.168Z,11.90
2019-04-22T06:57:58.205Z,12.10
2019-04-22T07:00:32.365Z,12.20
2019-04-22T07:03:26.924Z,12.40
2019-04-22T07:05:27.636Z,12.60
2019-04-22T07:08:02.707Z,12.70
2019-04-22T07:12:49.805Z,13.00
2019-04-22T07:15:35.814Z,13.10
2019-04-22T07:17:52.222Z,13.30
2019-04-22T07:20:17.545Z,13.40
2019-04-22T07:22:40.173Z,13.60
2019-04-22T07:25:12.844Z,13.80
2019-04-22T07:27:44.085Z,14.00
2019-04-22T07:30:15.431Z,14.20
2019-04-22T07:35:08.736Z,14.70
2019-04-22T07:37:36.788Z,14.80
2019-04-22T07:39:59.845Z,14.90
2019-04-22T07:44:54.876Z,15.30
2019-04-22T07:47:25.728Z,15.60
2019-04-22T07:49:52.227Z,15.80
2019-04-22T07:52:22.981Z,16.00
2019-04-22T07:54:46.901Z,16.10
2019-04-22T07:57:20.216Z,16.30
2019-04-22T07:59:40.780Z,16.50
2019-04-22T08:02:10.288Z,16.70
2019-04-22T08:04:56.086Z,16.80
2019-04-22T08:07:24.058Z,16.90
2019-04-22T08:11:59.876Z,17.40
2019-04-22T08:14:28.313Z,17.50
2019-04-22T08:17:14.078Z,17.60
2019-04-22T08:19:35.376Z,17.80
2019-04-22T08:22:00.031Z,17.90
2019-04-22T08:24:22.711Z,18.00
2019-04-22T08:26:53.230Z,18.20
2019-04-22T08:29:22.043Z,18.50
2019-04-22T08:31:48.594Z,18.70
2019-04-22T08:36:55.436Z,18.90
2019-04-22T08:39:13.642Z,19.10
2019-04-22T08:44:35.531Z,19.30
2019-04-22T08:46:41.012Z,19.60
2019-04-22T08:49:18.894Z,19.80
2019-04-22T08:51:37.773Z,19.70
2019-04-22T08:56:32.104Z,20.00
2019-04-22T08:59:03.096Z,20.10
2019-04-22T09:04:01.078Z,20.30
2019-04-22T09:06:36.493Z,20.40
2019-04-22T09:08:54.084Z,20.60
2019-04-22T09:11:21.224Z,20.70
2019-04-22T09:13:50.478Z,20.70
2019-04-22T09:16:20.718Z,20.70
2019-04-22T09:18:45.841Z,20.80
2019-04-22T09:23:44.511Z,21.20
2019-04-22T09:26:09.074Z,21.30
2019-04-22T09:28:42.274Z,21.40
2019-04-22T09:36:07.888Z,21.80
2019-04-22T09:40:52.651Z,22.00
2019-04-22T09:43:26.458Z,22.10
2019-04-22T09:45:47.811Z,22.20
2019-04-22T09:48:23.474Z,22.30
2019-04-22T09:50:47.946Z,22.30
2019-04-22T09:53:20.061Z,22.40
2019-04-22T09:55:45.136Z,22.60
2019-04-22T09:58:09.683Z,22.60
2019-04-22T10:01:00.193Z,22.60
2019-04-22T10:03:15.175Z,22.70
2019-04-22T10:05:46.092Z,22.60
2019-04-22T10:08:18.210Z,22.80
2019-04-22T10:10:51.511Z,22.90
2019-04-22T10:13:08.540Z,23.00
2019-04-22T10:15:36.252Z,23.20
2019-04-22T10:18:04.126Z,23.30
2019-04-22T10:20:36.270Z,23.40
2019-04-22T10:23:03.748Z,23.50
2019-04-22T10:25:30.053Z,23.50
2019-04-22T10:28:03.600Z,23.50
2019-04-22T10:30:33.572Z,23.50
2019-04-22T10:32:52.297Z,23.60
2019-04-22T10:35:14.357Z,23.80
2019-04-22T10:37:38.611Z,24.00
2019-04-22T10:40:11.273Z,24.00
2019-04-22T10:42:40.933Z,24.10
2019-04-22T10:45:08.177Z,24.10
2019-04-22T10:47:34.439Z,24.20
2019-04-22T10:50:00.704Z,24.40
2019-04-22T10:52:27.680Z,24.50
2019-04-22T10:54:53.949Z,24.50
2019-04-22T10:57:20.166Z,24.40
2019-04-22T10:59:46.850Z,24.40
2019-04-22T11:02:13.705Z,24.50
2019-04-22T11:04:40.470Z,24.60
2019-04-22T11:07:10.737Z,24.60
2019-04-22T11:09:47.709Z,24.70
2019-04-22T11:12:09.931Z,24.70
2019-04-22T11:14:32.736Z,24.70
2019-04-22T11:17:02.227Z,24.90
2019-04-22T11:19:27.815Z,24.90
2019-04-22T11:22:03.769Z,25.10
2019-04-22T11:24:23.024Z,25.10
2019-04-22T11:26:49.407Z,25.30
2019-04-22T11:29:15.553Z,25.30
2019-04-22T11:31:42.328Z,25.20
2019-04-22T11:34:08.909Z,25.30
2019-04-22T11:36:36.925Z,25.30
2019-04-22T11:53:50.498Z,25.80
2019-04-22T11:56:16.857Z,25.80
2019-04-22T11:58:44.498Z,25.90
2019-04-22T12:01:10.901Z,26.00
2019-04-22T12:03:37.996Z,26.10
2019-04-22T12:06:04.379Z,26.00
2019-04-22T12:08:31.149Z,26.10
2019-04-22T12:11:00.894Z,26.20
2019-04-22T12:18:19.672Z,26.60
2019-04-22T12:20:47.178Z,26.50
2019-04-22T12:23:14.785Z,26.40
2019-04-22T12:25:48.690Z,26.40
2019-04-22T12:28:10.886Z,26.40
2019-04-22T12:30:37.466Z,26.50
2019-04-22T12:33:04.379Z,26.60
2019-04-22T12:35:32.748Z,26.60
2019-04-22T12:38:03.454Z,26.60
2019-04-22T12:40:38.240Z,26.70
2019-04-22T12:42:55.538Z,26.70
2019-04-22T12:45:22.433Z,26.70
2019-04-22T12:47:48.743Z,26.80
2019-04-22T12:50:23.397Z,26.80
2019-04-22T12:52:51.427Z,26.80
2019-04-22T12:55:14.224Z,26.80
2019-04-22T12:57:40.882Z,26.90
2019-04-22T13:00:08.940Z,27.00
2019-04-22T13:02:35.144Z,27.10
2019-04-22T13:05:01.349Z,27.10
2019-04-22T13:07:27.488Z,27.10
2019-04-22T13:09:54.948Z,27.20
2019-04-22T13:12:22.474Z,27.20
2019-04-22T13:14:48.946Z,27.10
2019-04-22T13:17:15.697Z,27.10
2019-04-22T13:19:44.379Z,27.30
2019-04-22T13:22:10.861Z,27.20
2019-04-22T13:24:37.037Z,27.30
2019-04-22T13:27:03.374Z,27.40
2019-04-22T13:29:30.990Z,27.40
2019-04-22T13:31:58.592Z,27.50
2019-04-22T13:47:06.813Z,29.20
2019-04-22T13:49:40.471Z,29.30
2019-04-22T13:52:18.842Z,29.70
2019-04-22T13:56:52.122Z,30.50
2019-04-22T13:59:13.564Z,30.90
2019-04-22T14:01:36.576Z,31.30
2019-04-22T14:04:04.937Z,31.60
2019-04-22T14:11:34.419Z,32.70
2019-04-22T14:13:53.224Z,33.00
2019-04-22T14:16:19.575Z,33.20
2019-04-22T14:21:14.944Z,33.80
2019-04-22T14:23:42.395Z,33.80
2019-04-22T14:26:09.129Z,34.10
2019-04-22T14:28:35.702Z,34.40
2019-04-22T14:31:02.398Z,34.60
2019-04-22T14:33:29.962Z,34.80
2019-04-22T14:35:56.454Z,34.60
2019-04-22T14:38:23.881Z,34.50
2019-04-22T14:40:50.081Z,34.60
2019-04-22T14:43:46.277Z,34.70
2019-04-22T14:48:41.946Z,34.70
2019-04-22T14:51:00.953Z,34.80
2019-04-22T14:53:30.817Z,35.10
2019-04-22T14:55:38.222Z,35.00
2019-04-22T14:58:04.806Z,34.70
2019-04-22T15:00:31.732Z,34.50
2019-04-22T15:02:57.935Z,34.50
2019-04-22T15:05:24.010Z,34.40
2019-04-22T15:07:50.174Z,34.20
2019-04-22T15:10:18.164Z,34.10
2019-04-22T15:12:48.135Z,34.10
2019-04-22T15:15:15.562Z,33.90
2019-04-22T15:17:44.988Z,33.80
2019-04-22T15:20:31.785Z,33.80
2019-04-22T15:22:59.065Z,33.80
2019-04-22T15:25:26.250Z,33.60
2019-04-22T15:27:53.334Z,33.60
2019-04-22T15:30:21.320Z,33.60
2019-04-22T15:32:49.736Z,33.60
2019-04-22T15:35:17.409Z,33.60
2019-04-22T15:37:45.540Z,33.40
2019-04-22T15:40:13.062Z,33.20
2019-04-22T15:42:42.862Z,32.80
2019-04-22T15:45:08.526Z,32.60
2019-04-22T15:47:35.164Z,32.50
2019-04-22T15:50:03.842Z,32.40
2019-04-22T15:52:37.592Z,32.40
2019-04-22T15:54:58.394Z,32.20
2019-04-22T15:57:24.763Z,32.20
2019-04-22T16:00:08.201Z,32.30
2019-04-22T16:02:19.431Z,32.30
2019-04-22T16:04:46.549Z,32.40
2019-04-22T16:07:12.871Z,32.20
2019-04-22T16:09:39.467Z,32.10
2019-04-22T16:12:16.168Z,32.20
2019-04-22T16:14:41.114Z,32.40
2019-04-22T16:17:01.675Z,32.30
2019-04-22T16:19:27.736Z,32.30
2019-04-22T16:21:59.351Z,32.50
2019-04-22T16:24:24.333Z,32.60
2019-04-22T16:26:53.869Z,32.60
2019-04-22T16:29:21.230Z,32.60
2019-04-22T16:31:47.738Z,32.50
2019-04-22T16:34:15.345Z,32.40
2019-04-22T16:36:42.766Z,32.40
2019-04-22T16:39:11.017Z,32.30
2019-04-22T16:41:37.189Z,32.40
2019-04-22T16:44:04.669Z,32.40
2019-04-22T16:46:31.879Z,32.40
2019-04-22T16:48:58.240Z,32.30
2019-04-22T16:51:24.599Z,32.30
2019-04-22T16:53:51.055Z,31.90
2019-04-22T16:56:17.196Z,31.40
2019-04-22T16:58:43.391Z,31.20
2019-04-22T17:03:56.625Z,30.30
2019-04-22T17:06:25.671Z,30.10
2019-04-22T17:11:20.204Z,29.70
2019-04-22T17:13:47.997Z,29.60
2019-04-22T17:16:15.674Z,29.40
2019-04-22T17:18:43.508Z,29.20
2019-04-22T17:21:11.055Z,28.90
2019-04-22T17:23:38.243Z,28.90
2019-04-22T17:26:04.437Z,28.80
2019-04-22T17:28:31.311Z,28.70
2019-04-22T17:30:57.713Z,28.40
2019-04-22T17:33:23.796Z,28.20
2019-04-22T17:35:50.337Z,27.70
2019-04-22T17:38:26.988Z,27.30
2019-04-22T17:41:01.469Z,27.00
2019-04-22T17:43:42.306Z,26.60
2019-04-22T17:46:10.833Z,26.30
2019-04-22T17:48:49.120Z,26.00
2019-04-22T17:53:46.851Z,25.20
2019-04-22T17:56:14.087Z,24.80
2019-04-22T17:58:45.120Z,24.40
2019-04-22T18:01:09.190Z,24.10
2019-04-22T18:03:29.118Z,23.70
2019-04-22T18:05:53.223Z,23.40
2019-04-22T18:08:36.516Z,23.00
2019-04-22T18:11:05.933Z,22.70
2019-04-22T18:13:32.976Z,22.50
2019-04-22T18:16:07.030Z,22.20
2019-04-22T18:18:30.147Z,21.90
2019-04-22T18:20:52.024Z,21.70
2019-04-22T18:23:09.687Z,21.50
2019-04-22T18:25:52.407Z,21.30
2019-04-22T18:28:25.192Z,21.10
2019-04-22T18:30:41.271Z,20.90
2019-04-22T18:33:16.423Z,20.80
2019-04-22T18:35:40.043Z,20.70
2019-04-22T18:38:21.558Z,20.60
2019-04-22T18:40:38.388Z,20.30
2019-04-22T18:43:14.744Z,20.20
2019-04-22T18:45:49.369Z,20.00
2019-04-22T18:47:58.548Z,20.00
2019-04-22T18:50:45.274Z,20.00
2019-04-22T18:53:29.808Z,19.80
2019-04-22T18:56:09.739Z,19.80
2019-04-22T18:58:26.041Z,19.70
2019-04-22T19:00:43.880Z,19.60
2019-04-22T19:03:16.489Z,19.40
2019-04-22T19:06:00.958Z,19.20
2019-04-22T19:08:28.890Z,19.10
2019-04-22T19:11:02.578Z,19.10
2019-04-22T19:13:54.462Z,19.00
2019-04-22T19:16:09.846Z,18.70
2019-04-22T19:18:29.911Z,18.70
2019-04-22T19:20:57.840Z,18.70
2019-04-22T19:23:19.334Z,18.60
2019-04-22T19:25:42.357Z,18.60
2019-04-22T19:28:23.912Z,18.50
2019-04-22T19:30:47.845Z,18.40
2019-04-22T19:33:11.197Z,18.20
2019-04-22T19:35:35.016Z,18.20
2019-04-22T19:38:00.208Z,18.20
2019-04-22T19:40:52.736Z,18.20
2019-04-22T19:43:09.076Z,18.10
2019-04-22T19:45:37.086Z,18.10
2019-04-22T19:48:14.081Z,18.00
2019-04-22T19:50:35.370Z,18.00
2019-04-22T19:53:05.015Z,17.80
2019-04-22T19:55:29.796Z,17.80
2019-04-22T19:57:57.350Z,17.80
2019-04-22T20:00:28.823Z,17.80
2019-04-22T20:03:21.717Z,17.70
2019-04-22T20:05:47.671Z,17.60
2019-04-22T20:08:21.447Z,17.50
2019-04-22T20:10:45.911Z,17.40
2019-04-22T20:13:20.332Z,17.40
2019-04-22T20:15:33.499Z,17.40
2019-04-22T20:20:41.889Z,17.30
2019-04-22T20:23:02.882Z,17.30
2019-04-22T20:25:33.288Z,17.20
2019-04-22T20:28:10.995Z,17.20
2019-04-22T20:30:34.803Z,17.10
2019-04-22T20:32:56.661Z,17.00
2019-04-22T20:35:27.729Z,16.90
2019-04-22T20:37:56.790Z,16.80
2019-04-22T20:40:31.788Z,16.80
2019-04-22T20:43:01.448Z,16.90
2019-04-22T20:45:30.804Z,16.80
2019-04-22T20:47:45.474Z,16.70
2019-04-22T20:50:25.005Z,16.80
2019-04-22T20:52:59.001Z,16.60
2019-04-22T20:55:13.114Z,16.70
2019-04-22T20:57:48.021Z,16.70
2019-04-22T21:00:09.069Z,16.50
2019-04-22T21:02:32.676Z,16.50
2019-04-22T21:05:00.095Z,16.50
2019-04-22T21:07:32.500Z,16.40
2019-04-22T21:10:02.383Z,16.30
2019-04-22T21:12:29.260Z,16.30
2019-04-22T21:15:06.806Z,16.30
2019-04-22T21:17:30.925Z,16.10
2019-04-22T21:20:00.101Z,16.20
2019-04-22T21:22:27.304Z,16.10
2019-04-22T21:24:49.226Z,16.10
2019-04-22T21:27:40.716Z,16.10
2019-04-22T21:29:43.594Z,16.10
2019-04-22T21:32:19.422Z,16.00
2019-04-22T21:34:52.752Z,16.00
2019-04-22T21:37:23.198Z,15.80
2019-04-22T21:39:36.710Z,15.80
2019-04-22T21:42:09.160Z,15.80
2019-04-22T21:44:34.043Z,15.80
2019-04-22T21:47:13.084Z,15.80
2019-04-22T21:49:35.502Z,15.80
2019-04-22T21:51:59.762Z,15.70
2019-04-22T21:54:31.612Z,15.60
2019-04-22T21:57:37.415Z,15.70
2019-04-22T21:59:47.430Z,15.60
2019-04-22T22:02:17.091Z,15.50
2019-04-22T22:04:38.609Z,15.50
2019-04-22T22:07:01.067Z,15.50
2019-04-22T22:09:42.949Z,15.40
2019-04-22T22:12:05.110Z,15.50
2019-04-22T22:14:36.490Z,15.40
2019-04-22T22:16:56.101Z,15.40
2019-04-22T22:19:35.921Z,15.40
2019-04-22T22:22:06.068Z,15.40
2019-04-22T22:24:33.913Z,15.40
2019-04-22T22:26:55.958Z,15.40
2019-04-22T22:29:39.635Z,15.40
2019-04-22T22:31:57.818Z,15.40
2019-04-22T22:34:24.480Z,15.40
2019-04-22T22:36:40.434Z,15.40
2019-04-22T22:39:10.344Z,15.20
2019-04-22T22:41:25.996Z,15.10
2019-04-22T22:43:57.272Z,15.20
2019-04-22T22:46:51.636Z,15.20
2019-04-22T22:49:29.940Z,15.20
2019-04-22T22:51:53.121Z,15.10
2019-04-22T22:54:25.105Z,15.10
2019-04-22T22:56:57.622Z,15.10
2019-04-22T22:59:15.796Z,15.10
2019-04-22T23:01:45.390Z,15.20
2019-04-22T23:04:18.015Z,15.00
2019-04-22T23:06:45.537Z,15.00
2019-04-22T23:09:10.245Z,15.00
2019-04-22T23:11:52.528Z,15.00
2019-04-22T23:14:07.888Z,14.90
2019-04-22T23:16:22.012Z,14.80
2019-04-22T23:18:59.720Z,14.80
2019-04-22T23:21:32.823Z,14.80
2019-04-22T23:24:14.518Z,14.80
2019-04-22T23:26:43.864Z,14.80
2019-04-22T23:29:24.916Z,14.70
2019-04-22T23:31:52.628Z,14.80
2019-04-22T23:34:32.777Z,14.80
2019-04-22T23:37:05.420Z,14.80
2019-04-22T23:39:41.540Z,14.80
2019-04-22T23:42:06.076Z,14.70
2019-04-22T23:44:32.493Z,14.70
2019-04-22T23:46:56.848Z,14.70
2019-04-22T23:49:25.333Z,14.60
2019-04-22T23:52:00.766Z,14.60
2019-04-22T23:54:31.329Z,14.60
2019-04-22T23:56:52.561Z,14.50
2019-04-22T23:59:32.644Z,14.50
